Time;durP1;ratioP1;P1;durP2;ratioP2;P2;SDS_P1;SDS_P2;PMS_P1;PMS_P2;Temp;Humidity;BMP_temperature;BMP_pressure;BME280_temperature;BME280_humidity;BME280_pressure;Samples;Min_cycle;Max_cycle;Signal;HPM_P1;HPM_P2
2020/12/04 00:02:06;;;;;;;28.42;13.52;;;2.00;99.90;;;;;;5065611;28;20205;-51
2020/12/04 00:04:32;;;;;;;28.58;14.05;;;2.00;99.90;;;;;;5068379;28;20182;-53
2020/12/04 00:06:59;;;;;;;34.20;14.93;;;2.00;99.90;;;;;;5060864;28;20188;-52
2020/12/04 00:09:26;;;;;;;29.88;13.15;;;2.00;99.90;;;;;;5063080;28;20236;-51
2020/12/04 00:11:52;;;;;;;31.73;14.73;;;2.00;99.90;;;;;;5065325;28;20186;-53
2020/12/04 00:14:18;;;;;;;31.10;14.68;;;2.00;99.90;;;;;;5066348;28;20186;-52
2020/12/04 00:16:44;;;;;;;33.33;14.40;;;2.00;99.90;;;;;;5060797;28;20210;-51
2020/12/04 00:19:10;;;;;;;27.83;13.93;;;2.00;99.90;;;;;;5060478;28;20587;-52
2020/12/04 00:21:37;;;;;;;30.75;14.02;;;2.00;99.90;;;;;;5064162;28;20272;-54
2020/12/04 00:24:03;;;;;;;30.88;13.95;;;2.00;99.90;;;;;;5064223;28;20190;-51
2020/12/04 00:26:29;;;;;;;31.75;14.18;;;2.00;99.90;;;;;;5061228;28;20178;-51
2020/12/04 00:28:55;;;;;;;28.83;12.52;;;2.00;99.90;;;;;;5061032;28;20178;-51
2020/12/04 00:31:21;;;;;;;31.88;13.10;;;2.00;99.90;;;;;;5058199;28;20181;-51
2020/12/04 00:33:47;;;;;;;26.80;12.55;;;2.00;99.90;;;;;;5063069;28;20650;-51
2020/12/04 00:36:13;;;;;;;33.50;13.52;;;2.10;99.90;;;;;;5061594;28;20736;-51
2020/12/04 00:38:40;;;;;;;31.38;13.32;;;2.10;99.90;;;;;;5061214;28;20523;-51
2020/12/04 00:41:06;;;;;;;31.73;14.35;;;2.10;99.90;;;;;;5063047;28;20213;-51
2020/12/04 00:43:32;;;;;;;31.98;14.98;;;2.10;99.90;;;;;;5061976;28;20178;-50
2020/12/04 00:46:04;;;;;;;31.05;14.40;;;2.10;99.90;;;;;;5056871;28;20304;-53
2020/12/04 00:48:30;;;;;;;35.53;14.85;;;2.10;99.90;;;;;;5059798;28;20189;-51
2020/12/04 00:50:56;;;;;;;34.00;15.40;;;2.00;99.90;;;;;;5064018;28;20200;-53
2020/12/04 00:53:22;;;;;;;33.22;14.85;;;2.00;99.90;;;;;;5062206;28;20568;-53
2020/12/04 00:55:49;;;;;;;32.65;14.02;;;2.10;99.90;;;;;;5060695;28;20553;-51
2020/12/04 00:58:16;;;;;;;33.83;14.93;;;2.10;99.90;;;;;;5057477;28;20201;-53
2020/12/04 01:00:42;;;;;;;33.50;14.27;;;2.10;99.90;;;;;;5059656;28;20563;-52
2020/12/04 01:03:08;;;;;;;34.45;15.05;;;2.10;99.90;;;;;;5064692;28;20665;-53
2020/12/04 01:05:34;;;;;;;32.58;14.10;;;2.10;99.90;;;;;;5066114;28;20650;-50
2020/12/04 01:08:03;;;;;;;27.83;13.20;;;2.10;99.90;;;;;;5066623;28;20670;-51
2020/12/04 01:10:29;;;;;;;36.30;15.68;;;2.10;99.90;;;;;;5063074;28;20174;-51
2020/12/04 01:12:55;;;;;;;33.92;15.65;;;2.10;99.90;;;;;;5069832;28;20186;-50
2020/12/04 01:15:21;;;;;;;32.45;14.35;;;2.10;99.90;;;;;;5064506;28;20174;-52
2020/12/04 01:17:50;;;;;;;30.42;14.27;;;2.10;99.90;;;;;;5065752;28;20210;-53
2020/12/04 01:20:17;;;;;;;32.55;14.68;;;2.10;99.90;;;;;;5064383;28;20193;-54
2020/12/04 01:22:43;;;;;;;37.65;16.10;;;2.10;99.90;;;;;;5065970;28;20185;-52
2020/12/04 01:25:09;;;;;;;37.13;15.60;;;2.00;99.90;;;;;;5068763;28;20174;-51
2020/12/04 01:27:35;;;;;;;39.30;14.52;;;2.00;99.90;;;;;;5068085;28;20193;-50
2020/12/04 01:30:04;;;;;;;40.22;15.80;;;2.00;99.90;;;;;;5065027;28;20194;-51
2020/12/04 01:32:30;;;;;;;36.63;16.05;;;2.00;99.90;;;;;;5065558;28;20563;-51
2020/12/04 01:34:56;;;;;;;40.45;17.42;;;2.00;99.90;;;;;;5062308;28;20205;-52
2020/12/04 01:37:22;;;;;;;37.78;16.15;;;2.10;99.90;;;;;;5063859;28;20183;-51
2020/12/04 01:39:48;;;;;;;38.42;16.50;;;2.10;99.90;;;;;;5064195;28;20183;-52
2020/12/04 01:42:14;;;;;;;40.70;16.45;;;2.00;99.90;;;;;;5065955;28;20222;-50
2020/12/04 01:44:41;;;;;;;42.22;16.17;;;2.10;99.90;;;;;;5069834;28;20174;-51
2020/12/04 01:47:07;;;;;;;43.25;16.98;;;2.00;99.90;;;;;;5064504;28;20179;-52
2020/12/04 01:49:33;;;;;;;45.00;17.70;;;2.10;99.90;;;;;;5064314;28;20178;-50
2020/12/04 01:51:59;;;;;;;42.03;16.50;;;2.10;99.90;;;;;;5063910;28;20182;-51
2020/12/04 01:54:25;;;;;;;39.05;16.13;;;2.10;99.90;;;;;;5064570;28;20179;-50
2020/12/04 01:56:51;;;;;;;40.40;17.15;;;2.10;99.90;;;;;;5043690;28;20197;-51
2020/12/04 01:59:18;;;;;;;40.95;16.67;;;2.10;99.90;;;;;;5058482;28;20607;-50
2020/12/04 02:01:44;;;;;;;49.90;19.33;;;2.10;99.90;;;;;;5066029;28;20214;-52
2020/12/04 02:04:11;;;;;;;45.90;18.95;;;2.10;99.90;;;;;;5065704;28;20181;-50
2020/12/04 02:06:53;;;;;;;45.67;17.38;;;2.10;99.90;;;;;;5064339;28;20186;-52
2020/12/04 02:09:39;;;;;;;42.92;17.85;;;2.10;99.90;;;;;;5063306;28;20220;-51
2020/12/04 02:12:05;;;;;;;42.85;17.52;;;2.10;99.90;;;;;;5063594;28;20512;-53
2020/12/04 02:14:31;;;;;;;41.40;17.85;;;2.20;99.90;;;;;;5067566;28;20179;-51
2020/12/04 02:17:07;;;;;;;47.97;18.60;;;2.10;99.90;;;;;;5062534;28;20194;-51
2020/12/04 02:19:37;;;;;;;47.63;19.08;;;2.10;99.90;;;;;;5065507;28;20181;-53
2020/12/04 02:22:04;;;;;;;45.30;17.42;;;2.10;99.90;;;;;;5059817;28;20445;-51
2020/12/04 02:24:30;;;;;;;46.00;16.40;;;2.20;99.90;;;;;;5063090;28;20204;-51
2020/12/04 02:26:56;;;;;;;45.92;17.45;;;2.10;99.90;;;;;;5050633;28;20267;-50
2020/12/04 02:29:24;;;;;;;49.22;18.88;;;2.10;99.90;;;;;;5063571;28;20185;-51
2020/12/04 02:31:51;;;;;;;48.70;18.38;;;2.10;99.90;;;;;;5057394;28;20182;-53
2020/12/04 02:34:17;;;;;;;40.45;17.15;;;2.10;99.90;;;;;;5062745;28;20185;-51
2020/12/04 02:36:44;;;;;;;48.47;17.80;;;2.10;99.90;;;;;;5059846;28;20194;-50
2020/12/04 02:39:10;;;;;;;42.30;17.65;;;2.10;99.90;;;;;;5062322;28;20642;-52
2020/12/04 02:41:36;;;;;;;38.83;15.48;;;2.10;99.90;;;;;;5062949;28;20213;-52
2020/12/04 02:44:02;;;;;;;41.40;16.13;;;2.10;99.90;;;;;;5061035;28;20202;-51
2020/12/04 02:46:28;;;;;;;42.13;17.70;;;2.10;99.90;;;;;;5065464;28;20244;-54
2020/12/04 02:48:54;;;;;;;44.35;18.00;;;2.10;99.90;;;;;;5064543;28;20178;-50
2020/12/04 02:51:20;;;;;;;45.15;17.75;;;2.10;99.90;;;;;;5067970;28;20565;-52
2020/12/04 02:53:47;;;;;;;40.83;17.30;;;2.10;99.90;;;;;;5062532;28;20200;-51
2020/12/04 02:56:17;;;;;;;45.85;18.50;;;2.10;99.90;;;;;;5061599;28;20501;-51
2020/12/04 02:58:43;;;;;;;48.97;18.45;;;2.10;99.90;;;;;;5062615;28;20209;-51
2020/12/04 03:01:09;;;;;;;47.70;17.95;;;2.10;99.90;;;;;;5066780;28;20225;-54
2020/12/04 03:03:35;;;;;;;39.35;15.35;;;2.10;99.90;;;;;;5066675;28;20182;-52
2020/12/04 03:06:01;;;;;;;39.92;16.85;;;2.10;99.90;;;;;;5062153;28;20191;-52
2020/12/04 03:08:30;;;;;;;42.45;18.73;;;2.10;99.90;;;;;;5063262;28;20241;-51
2020/12/04 03:10:57;;;;;;;42.08;17.50;;;2.10;99.90;;;;;;5059016;28;20189;-51
2020/12/04 03:13:23;;;;;;;44.22;17.52;;;2.10;99.90;;;;;;5062918;28;20185;-51
2020/12/04 03:15:49;;;;;;;46.13;16.58;;;2.10;99.90;;;;;;5065445;28;20221;-51
2020/12/04 03:18:16;;;;;;;44.47;16.38;;;2.10;99.90;;;;;;5071779;28;20174;-51
2020/12/04 03:20:42;;;;;;;43.30;18.27;;;2.10;99.90;;;;;;5067977;28;20177;-52
2020/12/04 03:23:08;;;;;;;43.00;16.83;;;2.10;99.90;;;;;;5064955;28;20570;-51
2020/12/04 03:25:34;;;;;;;46.33;18.15;;;2.10;99.90;;;;;;5059905;28;20194;-52
2020/12/04 03:28:00;;;;;;;40.70;15.73;;;2.10;99.90;;;;;;5064422;28;20517;-53
2020/12/04 03:30:27;;;;;;;47.73;21.63;;;2.20;99.90;;;;;;5064523;28;21068;-53
2020/12/04 03:32:53;;;;;;;49.05;21.58;;;2.20;99.90;;;;;;5068684;28;20437;-53
2020/12/04 03:35:19;;;;;;;43.55;21.50;;;2.20;99.90;;;;;;5067074;28;20389;-50
2020/12/04 03:37:45;;;;;;;50.50;17.08;;;2.20;99.90;;;;;;5070310;28;20185;-51
2020/12/04 03:40:11;;;;;;;34.10;14.00;;;2.20;99.90;;;;;;5060688;28;20177;-51
2020/12/04 03:42:37;;;;;;;40.40;16.60;;;2.20;99.90;;;;;;5071921;28;20213;-52
2020/12/04 03:45:04;;;;;;;43.83;17.50;;;2.20;99.90;;;;;;5063524;28;20174;-53
2020/12/04 03:47:30;;;;;;;46.63;17.88;;;2.20;99.90;;;;;;5062859;28;20190;-51
2020/12/04 03:49:56;;;;;;;42.20;17.65;;;2.20;99.90;;;;;;5068247;28;20182;-52
2020/12/04 03:52:22;;;;;;;44.15;18.00;;;2.20;99.90;;;;;;5070716;28;20193;-51
2020/12/04 03:54:48;;;;;;;43.13;16.52;;;2.20;99.90;;;;;;5064233;28;20656;-50
2020/12/04 03:57:14;;;;;;;47.33;18.27;;;2.20;99.90;;;;;;5055570;28;20625;-52
2020/12/04 03:59:41;;;;;;;44.72;18.35;;;2.20;99.90;;;;;;5059466;28;20537;-52
2020/12/04 04:02:07;;;;;;;46.45;18.08;;;2.20;99.90;;;;;;5059592;28;20218;-50
2020/12/04 04:04:33;;;;;;;44.95;19.15;;;2.20;99.90;;;;;;5069881;28;20178;-50
2020/12/04 04:06:59;;;;;;;50.30;19.52;;;2.20;99.90;;;;;;5071052;28;20193;-52
2020/12/04 04:09:25;;;;;;;48.15;19.13;;;2.20;99.90;;;;;;5066702;28;20233;-53
2020/12/04 04:11:51;;;;;;;49.60;20.05;;;2.20;99.90;;;;;;5063173;28;20191;-50
2020/12/04 04:14:18;;;;;;;53.63;20.08;;;2.20;99.90;;;;;;5065453;28;20186;-51
2020/12/04 04:16:44;;;;;;;53.15;21.42;;;2.10;99.90;;;;;;5064072;28;20205;-52
2020/12/04 04:19:10;;;;;;;54.38;21.40;;;2.10;99.90;;;;;;5060437;28;20284;-51
2020/12/04 04:21:39;;;;;;;49.47;20.00;;;2.10;99.90;;;;;;5062566;28;20209;-52
2020/12/04 04:24:09;;;;;;;56.97;20.90;;;2.20;99.90;;;;;;5070490;28;20174;-52
2020/12/04 04:26:35;;;;;;;58.05;19.88;;;2.20;99.90;;;;;;5063849;28;20638;-52
2020/12/04 04:29:04;;;;;;;48.97;20.08;;;2.20;99.90;;;;;;5061009;28;20666;-51
2020/12/04 04:31:30;;;;;;;55.75;20.77;;;2.20;99.90;;;;;;5067082;28;20190;-54
2020/12/04 04:33:56;;;;;;;51.70;19.52;;;2.20;99.90;;;;;;5068659;28;20189;-53
2020/12/04 04:36:22;;;;;;;51.50;19.60;;;2.20;99.90;;;;;;5070358;28;20174;-53
2020/12/04 04:38:48;;;;;;;49.03;20.58;;;2.20;99.90;;;;;;5068346;28;20178;-54
2020/12/04 04:41:15;;;;;;;45.78;19.65;;;2.20;99.90;;;;;;5063949;28;20218;-51
2020/12/04 04:43:41;;;;;;;52.70;20.60;;;2.20;99.90;;;;;;5060154;28;20205;-52
2020/12/04 04:46:31;;;;;;;56.03;20.95;;;2.20;99.90;;;;;;5062299;28;20174;-54
2020/12/04 04:48:59;;;;;;;51.13;20.27;;;2.20;99.90;;;;;;5064584;28;20163;-51
2020/12/04 04:51:25;;;;;;;50.05;20.17;;;2.20;99.90;;;;;;5060402;28;20179;-52
2020/12/04 04:53:58;;;;;;;51.50;20.70;;;2.20;99.90;;;;;;5066162;28;20177;-51
2020/12/04 04:56:24;;;;;;;54.00;21.23;;;2.20;99.90;;;;;;5059068;28;20197;-51
2020/12/04 04:58:51;;;;;;;55.53;20.77;;;2.20;99.90;;;;;;5063194;28;20182;-54
2020/12/04 05:01:17;;;;;;;50.60;20.02;;;2.20;99.90;;;;;;5067770;28;20507;-53
2020/12/04 05:03:57;;;;;;;50.88;19.45;;;2.20;99.90;;;;;;5070078;28;20177;-50
2020/12/04 05:06:35;;;;;;;53.30;20.63;;;2.20;99.90;;;;;;5069696;28;20173;-51
2020/12/04 05:09:03;;;;;;;55.20;21.30;;;2.20;99.90;;;;;;5070840;28;20228;-51
2020/12/04 05:11:31;;;;;;;52.15;19.27;;;2.20;99.90;;;;;;5071275;28;20681;-51
2020/12/04 05:14:17;;;;;;;54.60;20.98;;;2.20;99.90;;;;;;5071065;28;20173;-52
2020/12/04 05:16:46;;;;;;;50.80;21.05;;;2.20;99.90;;;;;;5070159;28;20208;-51
2020/12/04 05:19:12;;;;;;;51.90;20.17;;;2.20;99.90;;;;;;5070407;28;20185;-51
2020/12/04 05:21:39;;;;;;;54.88;21.17;;;2.20;99.90;;;;;;5071528;28;20220;-53
2020/12/04 05:24:05;;;;;;;48.50;19.42;;;2.30;99.90;;;;;;5071055;28;20202;-55
2020/12/04 05:26:35;;;;;;;52.72;21.42;;;2.30;99.90;;;;;;5071156;28;20193;-52
2020/12/04 05:29:02;;;;;;;49.55;20.33;;;2.20;99.90;;;;;;5069104;28;20178;-51
2020/12/04 05:31:33;;;;;;;61.33;21.75;;;2.20;99.90;;;;;;5069769;28;20252;-53
2020/12/04 05:33:59;;;;;;;47.40;20.08;;;2.30;99.90;;;;;;5068736;28;20189;-51
2020/12/04 05:36:30;;;;;;;48.78;18.52;;;2.20;99.90;;;;;;5069814;28;20268;-50
2020/12/04 05:38:56;;;;;;;48.65;19.25;;;2.20;99.90;;;;;;5071401;28;20518;-51
2020/12/04 05:41:23;;;;;;;49.65;20.38;;;2.30;99.90;;;;;;5071433;28;20197;-51
2020/12/04 05:43:52;;;;;;;52.03;21.52;;;2.20;99.90;;;;;;5071626;28;20538;-53
2020/12/04 05:46:22;;;;;;;54.63;20.23;;;2.30;99.90;;;;;;5070130;28;20185;-51
2020/12/04 05:49:00;;;;;;;52.58;20.85;;;2.30;99.90;;;;;;5071711;28;20185;-51
2020/12/04 05:51:30;;;;;;;59.25;21.88;;;2.30;99.90;;;;;;5071083;28;20154;-51
2020/12/04 05:53:56;;;;;;;49.30;20.80;;;2.30;99.90;;;;;;5075093;28;20189;-51
2020/12/04 05:56:23;;;;;;;58.33;22.17;;;2.30;99.90;;;;;;5074946;28;20173;-51
2020/12/04 05:58:52;;;;;;;47.95;18.92;;;2.30;99.90;;;;;;5074713;28;20182;-51
2020/12/04 06:01:18;;;;;;;50.05;20.48;;;2.30;99.90;;;;;;5073880;28;20162;-51
2020/12/04 06:03:49;;;;;;;52.58;21.00;;;2.30;99.90;;;;;;5069683;28;20190;-53
2020/12/04 06:06:22;;;;;;;50.90;21.73;;;2.30;99.90;;;;;;5072130;28;20181;-51
2020/12/04 06:08:48;;;;;;;51.80;21.73;;;2.30;99.90;;;;;;5054656;28;20202;-52
2020/12/04 06:11:14;;;;;;;51.05;20.63;;;2.30;99.90;;;;;;5062338;28;20193;-53
2020/12/04 06:13:41;;;;;;;46.85;18.40;;;2.30;99.90;;;;;;5056606;28;20540;-52
2020/12/04 06:16:11;;;;;;;59.60;23.27;;;2.30;99.90;;;;;;5073636;28;20181;-54
2020/12/04 06:18:38;;;;;;;54.05;22.40;;;2.30;99.90;;;;;;5074639;28;20614;-52
2020/12/04 06:21:04;;;;;;;47.55;19.75;;;2.30;99.90;;;;;;5069760;28;20182;-51
2020/12/04 06:23:30;;;;;;;53.08;21.02;;;2.30;99.90;;;;;;5053074;28;20211;-52
2020/12/04 06:26:00;;;;;;;52.05;21.63;;;2.30;99.90;;;;;;5053679;28;20179;-53
2020/12/04 06:28:31;;;;;;;52.95;20.85;;;2.30;99.90;;;;;;5066802;28;20196;-52
2020/12/04 06:31:13;;;;;;;57.85;22.27;;;2.30;99.90;;;;;;5074510;28;20189;-51
2020/12/04 06:33:46;;;;;;;57.63;22.33;;;2.20;99.90;;;;;;5073510;28;20178;-51
2020/12/04 06:36:35;;;;;;;53.65;21.85;;;2.20;99.90;;;;;;5072920;28;20182;-50
2020/12/04 06:39:03;;;;;;;53.20;22.08;;;2.10;99.90;;;;;;5053398;28;20189;-52
2020/12/04 06:41:34;;;;;;;47.70;19.65;;;2.10;99.90;;;;;;5063529;28;20182;-54
2020/12/04 06:44:15;;;;;;;51.35;19.95;;;2.10;99.90;;;;;;5074515;28;20170;-51
2020/12/04 06:46:48;;;;;;;57.10;22.77;;;2.10;99.90;;;;;;5074405;28;20161;-52
2020/12/04 06:49:23;;;;;;;53.60;21.20;;;2.00;99.90;;;;;;5073831;28;20170;-53
2020/12/04 06:52:16;;;;;;;55.38;21.42;;;2.00;99.90;;;;;;5074108;28;20196;-51
2020/12/04 06:54:44;;;;;;;55.58;21.80;;;1.90;99.90;;;;;;5072961;28;20533;-54
2020/12/04 06:57:10;;;;;;;53.10;20.25;;;1.90;99.90;;;;;;5074033;28;20162;-52
2020/12/04 06:59:40;;;;;;;54.60;22.63;;;1.90;99.90;;;;;;5073752;28;20166;-53
2020/12/04 07:02:14;;;;;;;53.80;21.83;;;1.80;99.90;;;;;;5073036;28;20213;-50
2020/12/04 07:04:50;;;;;;;52.72;21.38;;;1.80;99.90;;;;;;5072763;28;20180;-51
2020/12/04 07:07:17;;;;;;;54.60;21.65;;;1.80;99.90;;;;;;5061888;28;20186;-51
2020/12/04 07:09:51;;;;;;;58.75;23.10;;;1.70;99.90;;;;;;5053757;28;20206;-51
2020/12/04 07:12:21;;;;;;;52.42;21.55;;;1.70;99.90;;;;;;5052853;28;20195;-54
2020/12/04 07:14:49;;;;;;;49.88;20.35;;;1.70;99.90;;;;;;5072640;28;20166;-53
2020/12/04 07:17:19;;;;;;;57.10;22.38;;;1.60;99.90;;;;;;5072936;28;20197;-50
2020/12/04 07:19:46;;;;;;;51.45;21.13;;;1.60;99.90;;;;;;5073783;28;20524;-51
2020/12/04 07:22:14;;;;;;;60.75;23.73;;;1.60;99.90;;;;;;5072978;28;20590;-54
2020/12/04 07:24:40;;;;;;;59.92;22.02;;;1.60;99.90;;;;;;5069712;28;20178;-57
2020/12/04 07:27:06;;;;;;;50.47;20.45;;;1.60;99.90;;;;;;5072022;28;20186;-51
2020/12/04 07:29:37;;;;;;;57.38;21.52;;;1.50;99.90;;;;;;5071197;28;20182;-51
2020/12/04 07:32:03;;;;;;;60.03;23.38;;;1.50;99.90;;;;;;5069452;28;20166;-52
2020/12/04 07:34:30;;;;;;;57.42;22.17;;;1.50;99.90;;;;;;5069315;28;20193;-51
2020/12/04 07:36:57;;;;;;;54.47;22.83;;;1.50;99.90;;;;;;5072889;28;20181;-52
2020/12/04 07:39:36;;;;;;;57.88;23.17;;;1.50;99.90;;;;;;5072013;28;20181;-50
2020/12/04 07:42:04;;;;;;;56.95;22.38;;;1.50;99.90;;;;;;5068657;28;20224;-53
2020/12/04 07:44:50;;;;;;;60.83;22.40;;;1.50;99.90;;;;;;5066925;28;20166;-51
2020/12/04 07:47:17;;;;;;;60.20;23.73;;;1.50;99.90;;;;;;5068542;28;20174;-52
2020/12/04 07:50:00;;;;;;;53.13;21.80;;;1.50;99.90;;;;;;5071859;28;20536;-54
2020/12/04 07:52:31;;;;;;;57.63;23.27;;;1.60;99.90;;;;;;5069625;28;20173;-51
2020/12/04 07:54:58;;;;;;;59.97;24.40;;;1.50;99.90;;;;;;5069606;28;20174;-53
2020/12/04 07:58:05;;;;;;;65.47;24.50;;;1.60;99.90;;;;;;5069920;28;20180;-51
2020/12/04 08:00:32;;;;;;;65.32;22.33;;;1.60;99.90;;;;;;5069719;28;20265;-51
2020/12/04 08:03:12;;;;;;;52.30;22.48;;;1.60;99.90;;;;;;5071020;28;20553;-51
2020/12/04 08:05:39;;;;;;;57.15;22.27;;;1.60;99.90;;;;;;5067974;28;20184;-51
2020/12/04 08:08:06;;;;;;;59.60;22.88;;;1.70;99.90;;;;;;5071682;28;20213;-50
2020/12/04 08:10:32;;;;;;;54.50;21.88;;;1.70;99.90;;;;;;5070846;28;20174;-51
2020/12/04 08:12:59;;;;;;;57.03;22.83;;;1.70;99.90;;;;;;5057415;28;20189;-51
2020/12/04 08:15:25;;;;;;;57.55;22.73;;;1.70;99.90;;;;;;5070768;28;20208;-51
2020/12/04 08:18:01;;;;;;;56.08;21.25;;;1.70;99.90;;;;;;5071400;28;20174;-52
2020/12/04 08:20:27;;;;;;;61.95;24.27;;;1.80;99.90;;;;;;5071230;28;20192;-51
2020/12/04 08:22:54;;;;;;;61.80;24.02;;;1.80;99.90;;;;;;5064736;28;20213;-52
2020/12/04 08:25:27;;;;;;;54.40;23.58;;;1.80;99.90;;;;;;5071284;28;20170;-50
2020/12/04 08:27:53;;;;;;;54.97;22.55;;;1.90;99.90;;;;;;5070921;28;20158;-54
2020/12/04 08:30:21;;;;;;;53.28;23.00;;;2.00;99.90;;;;;;5071979;28;20630;-51
2020/12/04 08:32:47;;;;;;;57.45;22.10;;;2.20;99.90;;;;;;5071320;28;20189;-51
2020/12/04 08:35:20;;;;;;;53.85;21.05;;;2.20;99.90;;;;;;5072377;28;20178;-51
2020/12/04 08:37:47;;;;;;;53.78;22.35;;;2.30;99.90;;;;;;5057474;28;20186;-51
2020/12/04 08:40:26;;;;;;;60.85;22.65;;;2.30;99.90;;;;;;5053635;28;20181;-53
2020/12/04 08:42:53;;;;;;;54.65;22.40;;;2.40;99.90;;;;;;5057422;28;20568;-51
2020/12/04 08:45:27;;;;;;;56.33;21.88;;;2.40;99.90;;;;;;5070373;28;20177;-52
2020/12/04 08:47:53;;;;;;;56.38;21.73;;;2.40;99.90;;;;;;5062825;28;20638;-53
2020/12/04 08:50:22;;;;;;;56.90;21.73;;;2.40;99.90;;;;;;5071653;28;20177;-53
2020/12/04 08:52:56;;;;;;;53.70;20.92;;;2.50;99.90;;;;;;5070190;28;20296;-51
2020/12/04 08:55:29;;;;;;;58.58;21.48;;;2.50;99.90;;;;;;5071105;28;20185;-51
2020/12/04 08:57:55;;;;;;;53.00;21.90;;;2.50;99.90;;;;;;5070769;28;20178;-52
2020/12/04 09:00:30;;;;;;;52.38;21.58;;;2.50;99.90;;;;;;5070822;28;20534;-52
2020/12/04 09:02:59;;;;;;;54.65;22.25;;;2.50;99.90;;;;;;5070133;28;20213;-54
2020/12/04 09:05:25;;;;;;;52.33;22.15;;;2.60;99.90;;;;;;5071636;28;20189;-53
2020/12/04 09:07:54;;;;;;;52.65;21.33;;;2.60;99.90;;;;;;5070390;28;20178;-53
2020/12/04 09:10:21;;;;;;;53.85;20.73;;;2.60;99.90;;;;;;5063159;28;20170;-51
2020/12/04 09:12:47;;;;;;;50.55;21.15;;;2.60;99.90;;;;;;5070945;28;20634;-51
2020/12/04 09:15:18;;;;;;;51.97;21.40;;;2.60;99.90;;;;;;5071230;28;20193;-53
2020/12/04 09:17:44;;;;;;;50.88;20.17;;;2.70;99.90;;;;;;5069741;28;20657;-52
2020/12/04 09:20:11;;;;;;;48.92;19.77;;;2.70;99.90;;;;;;5071212;28;20692;-52
2020/12/04 09:22:37;;;;;;;51.25;21.73;;;2.70;99.90;;;;;;5062765;28;20213;-53
2020/12/04 09:25:05;;;;;;;49.38;20.65;;;2.70;99.90;;;;;;5071072;28;20178;-51
2020/12/04 09:27:31;;;;;;;44.88;19.15;;;2.70;99.90;;;;;;5072176;28;20162;-52
2020/12/04 09:29:57;;;;;;;51.47;21.63;;;2.80;99.90;;;;;;5074479;28;20541;-54
2020/12/04 09:32:23;;;;;;;50.47;20.20;;;2.80;99.90;;;;;;5074076;28;20182;-51
2020/12/04 09:34:50;;;;;;;46.70;19.90;;;2.80;99.90;;;;;;5070983;28;20185;-51
2020/12/04 09:37:26;;;;;;;47.85;19.92;;;2.80;99.90;;;;;;5074990;28;20188;-51
2020/12/04 09:39:57;;;;;;;47.35;19.13;;;2.80;99.90;;;;;;5074428;28;20524;-52
2020/12/04 09:42:24;;;;;;;48.03;18.67;;;2.90;99.90;;;;;;5069036;28;20206;-51
2020/12/04 09:44:50;;;;;;;48.53;20.05;;;2.90;99.90;;;;;;5065046;28;20175;-55
2020/12/04 09:47:17;;;;;;;45.28;19.15;;;2.90;99.90;;;;;;5072795;28;20178;-53
2020/12/04 09:49:43;;;;;;;46.80;20.23;;;2.90;99.90;;;;;;5073507;28;20533;-52
2020/12/04 09:52:10;;;;;;;58.45;22.35;;;2.90;99.90;;;;;;5074265;28;20181;-51
2020/12/04 09:54:37;;;;;;;51.88;19.83;;;2.90;99.90;;;;;;5074372;28;20174;-52
2020/12/04 09:57:08;;;;;;;44.67;18.70;;;2.90;99.90;;;;;;5074819;28;20189;-52
2020/12/04 09:59:34;;;;;;;45.25;19.83;;;2.90;99.90;;;;;;5072298;28;20626;-55
2020/12/04 10:02:01;;;;;;;50.58;20.80;;;2.90;99.90;;;;;;5073903;28;20200;-53
2020/12/04 10:04:27;;;;;;;48.20;20.83;;;2.90;99.90;;;;;;5072752;28;20308;-52
2020/12/04 10:06:53;;;;;;;44.10;20.33;;;2.90;99.90;;;;;;5072808;28;20182;-51
2020/12/04 10:09:20;;;;;;;47.60;19.17;;;2.90;99.90;;;;;;5067931;28;20210;-54
2020/12/04 10:11:47;;;;;;;49.03;20.50;;;2.90;99.90;;;;;;5069894;28;20178;-54
2020/12/04 10:14:14;;;;;;;49.03;20.50;;;2.90;99.90;;;;;;5072409;28;20197;-54
2020/12/04 10:16:41;;;;;;;46.28;19.35;;;2.90;99.90;;;;;;5072712;28;20170;-51
2020/12/04 10:19:11;;;;;;;398.60;135.32;;;2.90;99.90;;;;;;5071339;28;20181;-54
2020/12/04 10:21:37;;;;;;;161.18;65.75;;;2.90;99.90;;;;;;5065078;28;20170;-52
2020/12/04 10:24:07;;;;;;;275.40;72.63;;;2.90;99.90;;;;;;5073068;28;20784;-53
2020/12/04 10:26:37;;;;;;;216.20;72.65;;;2.90;99.90;;;;;;5072927;28;20185;-52
2020/12/04 10:29:04;;;;;;;63.38;25.17;;;2.90;99.90;;;;;;5072610;28;20178;-52
2020/12/04 10:31:30;;;;;;;129.02;45.03;;;2.90;99.90;;;;;;5072943;28;20185;-51
2020/12/04 10:33:58;;;;;;;55.25;22.15;;;3.00;99.90;;;;;;5072807;28;20197;-54
2020/12/04 10:36:26;;;;;;;65.80;26.00;;;3.00;99.90;;;;;;5065671;28;20170;-53
2020/12/04 10:38:55;;;;;;;133.52;56.25;;;3.00;99.90;;;;;;5073319;28;20177;-51
2020/12/04 10:41:24;;;;;;;85.20;36.85;;;3.00;99.90;;;;;;5072459;28;20205;-52
2020/12/04 10:43:50;;;;;;;53.85;22.40;;;3.00;99.90;;;;;;5073524;28;20252;-54
2020/12/04 10:46:17;;;;;;;51.58;20.88;;;3.00;99.90;;;;;;5073653;28;20177;-53
2020/12/04 10:48:43;;;;;;;62.30;25.42;;;3.10;99.90;;;;;;5069692;28;20575;-52
2020/12/04 10:51:09;;;;;;;49.50;20.10;;;3.10;99.90;;;;;;5066548;28;20181;-53
2020/12/04 10:53:36;;;;;;;47.00;20.50;;;3.10;99.90;;;;;;5068759;28;20591;-53
2020/12/04 10:56:02;;;;;;;44.58;18.52;;;3.10;99.90;;;;;;5072801;28;20208;-54
2020/12/04 10:58:28;;;;;;;48.63;20.38;;;3.10;99.90;;;;;;5069954;28;20280;-51
2020/12/04 11:00:54;;;;;;;56.20;24.70;;;3.10;99.90;;;;;;5070798;28;20193;-55
2020/12/04 11:06:05;;;;;;;56.70;27.52;;;3.20;99.90;;;;;;5078929;28;20196;-51
2020/12/04 11:08:31;;;;;;;45.70;19.88;;;3.20;99.90;;;;;;5072245;28;20214;-52
2020/12/04 11:10:57;;;;;;;72.05;34.38;;;3.20;99.90;;;;;;5072605;28;20182;-52
2020/12/04 11:13:25;;;;;;;58.17;21.58;;;3.20;99.90;;;;;;5072042;28;20185;-50
2020/12/04 11:15:51;;;;;;;49.13;21.23;;;3.20;99.90;;;;;;5070407;28;20194;-50
2020/12/04 11:18:17;;;;;;;91.88;32.10;;;3.20;99.90;;;;;;5073388;28;20515;-50
2020/12/04 11:20:43;;;;;;;109.55;36.95;;;3.20;99.90;;;;;;5070475;28;20189;-52
2020/12/04 11:23:09;;;;;;;162.82;58.85;;;3.30;99.90;;;;;;5070261;28;20209;-50
2020/12/04 11:25:36;;;;;;;144.27;55.45;;;3.20;99.90;;;;;;5070698;28;20178;-52
2020/12/04 11:28:02;;;;;;;65.78;28.88;;;3.30;99.90;;;;;;5068848;28;20689;-51
2020/12/04 11:30:29;;;;;;;43.38;19.35;;;3.30;99.90;;;;;;5068685;28;20670;-51
2020/12/04 11:32:55;;;;;;;76.13;38.70;;;3.30;99.90;;;;;;5069266;28;20178;-50
2020/12/04 11:35:24;;;;;;;75.57;37.28;;;3.30;99.90;;;;;;5071833;28;20190;-50
2020/12/04 11:37:50;;;;;;;56.15;24.25;;;3.30;99.90;;;;;;5072254;28;20174;-50
2020/12/04 11:40:17;;;;;;;50.15;20.42;;;3.30;99.90;;;;;;5072803;28;20182;-51
2020/12/04 11:42:44;;;;;;;45.63;20.45;;;3.30;99.90;;;;;;5071048;28;20565;-52
2020/12/04 11:45:12;;;;;;;51.72;21.65;;;3.30;99.90;;;;;;5070759;28;20196;-51
2020/12/04 11:47:38;;;;;;;44.85;19.05;;;3.30;99.90;;;;;;5071502;28;20166;-50
2020/12/04 11:50:09;;;;;;;49.17;21.35;;;3.30;99.90;;;;;;5070485;28;20174;-51
2020/12/04 11:52:35;;;;;;;53.20;20.10;;;3.30;99.90;;;;;;5070697;28;20174;-51
2020/12/04 11:55:05;;;;;;;49.00;20.20;;;3.30;99.90;;;;;;5071899;28;20174;-50
2020/12/04 11:57:32;;;;;;;41.17;18.92;;;3.40;99.90;;;;;;5072315;28;20284;-50
2020/12/04 11:59:58;;;;;;;39.58;18.65;;;3.40;99.90;;;;;;5072000;28;20185;-51
2020/12/04 12:02:25;;;;;;;41.92;18.98;;;3.40;99.90;;;;;;5059596;28;20178;-51
2020/12/04 12:04:52;;;;;;;58.10;28.08;;;3.50;99.90;;;;;;5068625;28;20562;-50
2020/12/04 12:07:18;;;;;;;43.30;18.33;;;3.50;99.90;;;;;;5066598;28;20169;-51
2020/12/04 12:09:47;;;;;;;48.55;18.65;;;3.50;99.90;;;;;;5063380;28;20222;-50
2020/12/04 12:12:15;;;;;;;48.92;20.15;;;3.60;99.90;;;;;;5068474;28;20621;-53
2020/12/04 12:14:44;;;;;;;47.53;21.50;;;3.60;99.90;;;;;;5067804;28;20665;-50
2020/12/04 12:17:14;;;;;;;42.67;20.05;;;3.60;99.90;;;;;;5070602;28;20178;-50
2020/12/04 12:19:40;;;;;;;47.05;21.15;;;3.60;99.90;;;;;;5068592;28;20269;-51
2020/12/04 12:22:10;;;;;;;58.50;23.45;;;3.60;99.90;;;;;;5064830;28;20621;-52
2020/12/04 12:24:40;;;;;;;61.58;23.75;;;3.60;99.90;;;;;;5071148;28;20214;-50
2020/12/04 12:27:07;;;;;;;50.78;24.25;;;3.60;99.90;;;;;;5064835;28;20187;-51
2020/12/04 12:29:33;;;;;;;52.38;21.30;;;3.70;99.90;;;;;;5066627;28;20178;-50
2020/12/04 12:32:00;;;;;;;41.88;18.60;;;3.70;99.90;;;;;;5064854;28;20198;-51
2020/12/04 12:37:11;;;;;;;67.00;22.05;;;3.70;99.90;;;;;;5073537;28;20688;-51
2020/12/04 12:39:40;;;;;;;83.30;27.48;;;3.70;99.90;;;;;;5063603;28;20542;-52
2020/12/04 12:42:10;;;;;;;57.42;20.60;;;3.70;99.90;;;;;;5069042;28;20672;-51
2020/12/04 12:44:37;;;;;;;44.38;18.02;;;3.70;99.90;;;;;;5065022;28;20676;-52
2020/12/04 12:47:04;;;;;;;44.70;17.73;;;3.70;99.90;;;;;;5067347;28;20170;-51